ilmateenistus.ee keskkonnaagentuur.ee
EETN Tallinna lennuväli
FTEO31 EETN 022300
TAF EETN 022325Z 0300/0324 21015G25KT 9999 BKN015 BKN020 TEMPO
    0300/0306 23020G32KT 2000 SHRASN BKN006 SCT015CB BECMG 0306/0308
    25020G30KT TEMPO 0308/0314 1200 +SHSNRA BKN005 BKN013CB TEMPO
    0310/0313 28025G42KT BECMG 0317/0319 27010KT SCT025=

METAR EETN 030020Z 21014KT 9999 BKN013 BKN020 02/00 Q0979 =
Tallinna lennuväli
EEKA Kärdla lennuväli
METAR EEKA 022350Z NIL=
Kärdla lennuväli
EEKE Kuressaare lennuväli
METAR EEKE 022350Z AUTO 25016G27KT 9999NDV BKN026 BKN036 04/00 Q0983=
Kuressaare lennuväli
EEPU Pärnu lennuväli
METAR EEPU 022350Z NIL=
Pärnu lennuväli
EETU Tartu lennuväli
METAR EETU 030020Z AUTO 20024KT 170V230 9999 OVC031/// 06/00 Q0984=
Tartu lennuväli
EEEI Ämari lennuväli
METAR EEEI 030020Z AUTO 20013KT 9999 FEW014 BKN017 02/00 Q0980 R24/090095=
Ämari lennuväli